sensor_id;sensor_type;location;lat;lon;timestamp;P1;durP1;ratioP1;P2;durP2;ratioP2
12437;SDS011;6283;51.330;12.374;2022-07-29T00:08:38;1.95;;;1.50;;
12437;SDS011;6283;51.330;12.374;2022-07-29T02:01:03;2.28;;;1.70;;
12437;SDS011;6283;51.330;12.374;2022-07-29T02:19:26;2.72;;;1.50;;
12437;SDS011;6283;51.330;12.374;2022-07-29T03:06:01;2.30;;;1.70;;
12437;SDS011;6283;51.330;12.374;2022-07-29T03:12:49;2.42;;;1.85;;
12437;SDS011;6283;51.330;12.374;2022-07-29T03:16:00;3.13;;;1.70;;
12437;SDS011;6283;51.330;12.374;2022-07-29T03:26:47;2.58;;;1.50;;
12437;SDS011;6283;51.330;12.374;2022-07-29T04:14:33;1.60;;;1.50;;
12437;SDS011;6283;51.330;12.374;2022-07-29T04:17:50;4.63;;;1.67;;
12437;SDS011;6283;51.330;12.374;2022-07-29T07:40:09;6.05;;;3.78;;
12437;SDS011;6283;51.330;12.374;2022-07-29T07:42:36;4.53;;;3.38;;
12437;SDS011;6283;51.330;12.374;2022-07-29T07:45:03;6.95;;;3.15;;
12437;SDS011;6283;51.330;12.374;2022-07-29T07:47:29;7.47;;;3.30;;
12437;SDS011;6283;51.330;12.374;2022-07-29T07:49:55;7.38;;;3.90;;
12437;SDS011;6283;51.330;12.374;2022-07-29T07:52:21;4.95;;;2.95;;
12437;SDS011;6283;51.330;12.374;2022-07-29T07:54:47;7.07;;;3.80;;
12437;SDS011;6283;51.330;12.374;2022-07-29T07:57:13;7.00;;;3.90;;
12437;SDS011;6283;51.330;12.374;2022-07-29T07:59:39;5.20;;;4.38;;
12437;SDS011;6283;51.330;12.374;2022-07-29T08:02:05;6.90;;;3.88;;
12437;SDS011;6283;51.330;12.374;2022-07-29T08:04:32;4.85;;;3.70;;
12437;SDS011;6283;51.330;12.374;2022-07-29T08:06:58;7.07;;;3.88;;
12437;SDS011;6283;51.330;12.374;2022-07-29T08:09:24;9.25;;;3.97;;
12437;SDS011;6283;51.330;12.374;2022-07-29T08:11:51;7.85;;;3.78;;
12437;SDS011;6283;51.330;12.374;2022-07-29T08:14:17;6.95;;;3.80;;
12437;SDS011;6283;51.330;12.374;2022-07-29T08:16:43;7.60;;;4.25;;
12437;SDS011;6283;51.330;12.374;2022-07-29T08:19:09;6.45;;;4.03;;
12437;SDS011;6283;51.330;12.374;2022-07-29T08:21:34;7.68;;;3.85;;
12437;SDS011;6283;51.330;12.374;2022-07-29T08:24:01;6.18;;;3.72;;
12437;SDS011;6283;51.330;12.374;2022-07-29T08:26:45;9.07;;;4.72;;
12437;SDS011;6283;51.330;12.374;2022-07-29T08:29:11;5.10;;;4.18;;
12437;SDS011;6283;51.330;12.374;2022-07-29T08:31:37;11.20;;;4.80;;
12437;SDS011;6283;51.330;12.374;2022-07-29T08:34:03;8.57;;;4.50;;
12437;SDS011;6283;51.330;12.374;2022-07-29T08:36:30;4.70;;;3.45;;
12437;SDS011;6283;51.330;12.374;2022-07-29T08:38:56;6.13;;;3.53;;
12437;SDS011;6283;51.330;12.374;2022-07-29T08:41:22;5.70;;;3.35;;
12437;SDS011;6283;51.330;12.374;2022-07-29T08:43:49;4.18;;;3.22;;
12437;SDS011;6283;51.330;12.374;2022-07-29T08:46:16;6.95;;;3.65;;
12437;SDS011;6283;51.330;12.374;2022-07-29T08:48:42;5.22;;;3.20;;
12437;SDS011;6283;51.330;12.374;2022-07-29T08:51:08;5.70;;;3.33;;
12437;SDS011;6283;51.330;12.374;2022-07-29T08:53:40;5.55;;;2.97;;
12437;SDS011;6283;51.330;12.374;2022-07-29T08:56:07;6.88;;;3.20;;
12437;SDS011;6283;51.330;12.374;2022-07-29T08:58:36;5.30;;;3.20;;
12437;SDS011;6283;51.330;12.374;2022-07-29T09:01:02;5.90;;;3.33;;
12437;SDS011;6283;51.330;12.374;2022-07-29T09:03:32;7.45;;;2.97;;
12437;SDS011;6283;51.330;12.374;2022-07-29T09:05:59;7.82;;;3.28;;
12437;SDS011;6283;51.330;12.374;2022-07-29T09:08:26;3.80;;;3.00;;
12437;SDS011;6283;51.330;12.374;2022-07-29T09:10:52;6.78;;;3.30;;
12437;SDS011;6283;51.330;12.374;2022-07-29T09:13:18;6.03;;;3.85;;
12437;SDS011;6283;51.330;12.374;2022-07-29T09:15:44;4.63;;;3.33;;
12437;SDS011;6283;51.330;12.374;2022-07-29T09:18:10;5.03;;;3.67;;
12437;SDS011;6283;51.330;12.374;2022-07-29T09:20:35;5.47;;;3.22;;
12437;SDS011;6283;51.330;12.374;2022-07-29T09:23:19;7.10;;;4.60;;
12437;SDS011;6283;51.330;12.374;2022-07-29T09:25:45;5.13;;;3.83;;
12437;SDS011;6283;51.330;12.374;2022-07-29T09:28:14;6.60;;;4.63;;
12437;SDS011;6283;51.330;12.374;2022-07-29T09:30:55;5.70;;;4.72;;
12437;SDS011;6283;51.330;12.374;2022-07-29T09:33:23;6.22;;;5.30;;
12437;SDS011;6283;51.330;12.374;2022-07-29T09:35:59;9.23;;;4.68;;
12437;SDS011;6283;51.330;12.374;2022-07-29T09:38:27;7.57;;;4.32;;
12437;SDS011;6283;51.330;12.374;2022-07-29T09:40:56;5.25;;;4.65;;
12437;SDS011;6283;51.330;12.374;2022-07-29T09:43:23;6.82;;;4.97;;
12437;SDS011;6283;51.330;12.374;2022-07-29T09:45:49;7.10;;;4.93;;
12437;SDS011;6283;51.330;12.374;2022-07-29T09:50:43;6.50;;;4.45;;
12437;SDS011;6283;51.330;12.374;2022-07-29T09:53:10;6.47;;;4.80;;
12437;SDS011;6283;51.330;12.374;2022-07-29T09:55:45;8.40;;;5.20;;
12437;SDS011;6283;51.330;12.374;2022-07-29T09:58:16;4.60;;;4.07;;
12437;SDS011;6283;51.330;12.374;2022-07-29T10:00:43;5.50;;;4.20;;
12437;SDS011;6283;51.330;12.374;2022-07-29T10:03:10;6.00;;;4.13;;
12437;SDS011;6283;51.330;12.374;2022-07-29T10:05:37;5.28;;;3.72;;
12437;SDS011;6283;51.330;12.374;2022-07-29T10:08:03;7.35;;;4.38;;
12437;SDS011;6283;51.330;12.374;2022-07-29T10:10:30;5.32;;;3.78;;
12437;SDS011;6283;51.330;12.374;2022-07-29T10:13:32;5.75;;;4.00;;
12437;SDS011;6283;51.330;12.374;2022-07-29T10:15:50;6.07;;;3.60;;
12437;SDS011;6283;51.330;12.374;2022-07-29T10:18:16;5.25;;;3.05;;
12437;SDS011;6283;51.330;12.374;2022-07-29T10:20:44;5.78;;;3.78;;
12437;SDS011;6283;51.330;12.374;2022-07-29T10:23:10;5.32;;;4.00;;
12437;SDS011;6283;51.330;12.374;2022-07-29T10:25:36;5.50;;;3.45;;
12437;SDS011;6283;51.330;12.374;2022-07-29T10:28:01;7.30;;;4.20;;
12437;SDS011;6283;51.330;12.374;2022-07-29T10:30:27;6.05;;;3.45;;
12437;SDS011;6283;51.330;12.374;2022-07-29T10:33:06;3.67;;;2.97;;
12437;SDS011;6283;51.330;12.374;2022-07-29T10:38:34;3.65;;;2.75;;
12437;SDS011;6283;51.330;12.374;2022-07-29T10:46:44;5.95;;;2.95;;
12437;SDS011;6283;51.330;12.374;2022-07-29T10:49:20;6.60;;;2.92;;
12437;SDS011;6283;51.330;12.374;2022-07-29T10:54:15;3.78;;;2.70;;
12437;SDS011;6283;51.330;12.374;2022-07-29T10:56:41;4.07;;;2.90;;
12437;SDS011;6283;51.330;12.374;2022-07-29T11:01:45;3.08;;;2.30;;
12437;SDS011;6283;51.330;12.374;2022-07-29T11:04:12;2.60;;;2.40;;
12437;SDS011;6283;51.330;12.374;2022-07-29T11:09:25;3.58;;;2.47;;
12437;SDS011;6283;51.330;12.374;2022-07-29T11:11:51;6.55;;;3.20;;
12437;SDS011;6283;51.330;12.374;2022-07-29T11:14:18;8.15;;;3.00;;
12437;SDS011;6283;51.330;12.374;2022-07-29T11:17:05;5.45;;;4.20;;
12437;SDS011;6283;51.330;12.374;2022-07-29T11:19:32;3.67;;;3.30;;
12437;SDS011;6283;51.330;12.374;2022-07-29T11:21:58;5.85;;;3.08;;
12437;SDS011;6283;51.330;12.374;2022-07-29T11:24:29;5.20;;;3.05;;
12437;SDS011;6283;51.330;12.374;2022-07-29T11:27:06;3.50;;;2.28;;
12437;SDS011;6283;51.330;12.374;2022-07-29T11:29:38;4.00;;;2.42;;
12437;SDS011;6283;51.330;12.374;2022-07-29T11:32:10;4.90;;;2.53;;
12437;SDS011;6283;51.330;12.374;2022-07-29T11:34:37;3.13;;;2.83;;
12437;SDS011;6283;51.330;12.374;2022-07-29T11:47:41;7.18;;;3.50;;
12437;SDS011;6283;51.330;12.374;2022-07-29T11:50:13;3.80;;;3.40;;
12437;SDS011;6283;51.330;12.374;2022-07-29T11:52:45;3.55;;;3.03;;
12437;SDS011;6283;51.330;12.374;2022-07-29T11:55:15;4.10;;;3.47;;
12437;SDS011;6283;51.330;12.374;2022-07-29T12:00:12;3.60;;;3.30;;
12437;SDS011;6283;51.330;12.374;2022-07-29T12:02:50;3.13;;;2.90;;
12437;SDS011;6283;51.330;12.374;2022-07-29T12:05:16;3.72;;;3.25;;
12437;SDS011;6283;51.330;12.374;2022-07-29T12:07:42;3.65;;;3.22;;
12437;SDS011;6283;51.330;12.374;2022-07-29T12:10:08;4.50;;;3.03;;
12437;SDS011;6283;51.330;12.374;2022-07-29T12:12:34;3.28;;;2.97;;
12437;SDS011;6283;51.330;12.374;2022-07-29T12:15:13;5.93;;;3.28;;
12437;SDS011;6283;51.330;12.374;2022-07-29T12:17:44;7.25;;;3.33;;
12437;SDS011;6283;51.330;12.374;2022-07-29T12:20:11;5.93;;;3.35;;
12437;SDS011;6283;51.330;12.374;2022-07-29T12:22:39;3.90;;;3.53;;
12437;SDS011;6283;51.330;12.374;2022-07-29T12:25:09;3.30;;;3.00;;
12437;SDS011;6283;51.330;12.374;2022-07-29T12:27:37;6.15;;;3.28;;
12437;SDS011;6283;51.330;12.374;2022-07-29T12:30:09;4.53;;;3.53;;
12437;SDS011;6283;51.330;12.374;2022-07-29T12:32:41;6.18;;;4.05;;
12437;SDS011;6283;51.330;12.374;2022-07-29T12:35:09;6.93;;;3.72;;
12437;SDS011;6283;51.330;12.374;2022-07-29T12:37:40;3.78;;;3.47;;
12437;SDS011;6283;51.330;12.374;2022-07-29T12:40:07;4.25;;;3.60;;
12437;SDS011;6283;51.330;12.374;2022-07-29T12:42:35;4.90;;;3.67;;
12437;SDS011;6283;51.330;12.374;2022-07-29T12:45:02;4.68;;;3.47;;
12437;SDS011;6283;51.330;12.374;2022-07-29T12:47:29;3.60;;;3.30;;
12437;SDS011;6283;51.330;12.374;2022-07-29T12:50:08;10.85;;;4.20;;
12437;SDS011;6283;51.330;12.374;2022-07-29T12:52:40;4.13;;;3.05;;
12437;SDS011;6283;51.330;12.374;2022-07-29T12:55:05;4.45;;;3.13;;
12437;SDS011;6283;51.330;12.374;2022-07-29T12:57:31;3.92;;;2.90;;
12437;SDS011;6283;51.330;12.374;2022-07-29T13:00:09;4.45;;;3.83;;
12437;SDS011;6283;51.330;12.374;2022-07-29T13:02:38;4.32;;;3.72;;
12437;SDS011;6283;51.330;12.374;2022-07-29T13:05:06;6.00;;;4.85;;
12437;SDS011;6283;51.330;12.374;2022-07-29T13:07:37;4.07;;;3.78;;
12437;SDS011;6283;51.330;12.374;2022-07-29T13:12:39;4.47;;;4.05;;
12437;SDS011;6283;51.330;12.374;2022-07-29T13:15:34;7.70;;;4.03;;
12437;SDS011;6283;51.330;12.374;2022-07-29T13:18:01;3.85;;;3.47;;
12437;SDS011;6283;51.330;12.374;2022-07-29T13:20:28;6.68;;;3.97;;
12437;SDS011;6283;51.330;12.374;2022-07-29T13:22:55;4.10;;;3.80;;
12437;SDS011;6283;51.330;12.374;2022-07-29T13:25:26;6.10;;;4.43;;
12437;SDS011;6283;51.330;12.374;2022-07-29T13:27:54;3.83;;;3.45;;
12437;SDS011;6283;51.330;12.374;2022-07-29T13:30:20;4.10;;;3.53;;
12437;SDS011;6283;51.330;12.374;2022-07-29T13:32:47;5.97;;;3.92;;
12437;SDS011;6283;51.330;12.374;2022-07-29T13:35:13;3.92;;;3.53;;
12437;SDS011;6283;51.330;12.374;2022-07-29T13:37:39;4.45;;;3.45;;
12437;SDS011;6283;51.330;12.374;2022-07-29T13:40:06;3.47;;;3.17;;
12437;SDS011;6283;51.330;12.374;2022-07-29T13:42:36;7.13;;;3.80;;
12437;SDS011;6283;51.330;12.374;2022-07-29T13:45:03;5.35;;;3.83;;
12437;SDS011;6283;51.330;12.374;2022-07-29T13:47:31;6.13;;;3.92;;
12437;SDS011;6283;51.330;12.374;2022-07-29T13:49:57;5.03;;;3.60;;
12437;SDS011;6283;51.330;12.374;2022-07-29T13:52:22;4.13;;;3.72;;
12437;SDS011;6283;51.330;12.374;2022-07-29T13:54:48;4.75;;;4.25;;
12437;SDS011;6283;51.330;12.374;2022-07-29T13:57:14;9.80;;;3.72;;
12437;SDS011;6283;51.330;12.374;2022-07-29T13:59:40;4.30;;;3.80;;
12437;SDS011;6283;51.330;12.374;2022-07-29T14:02:07;6.05;;;4.75;;
12437;SDS011;6283;51.330;12.374;2022-07-29T14:04:35;5.57;;;4.05;;
12437;SDS011;6283;51.330;12.374;2022-07-29T14:07:02;7.90;;;3.97;;
12437;SDS011;6283;51.330;12.374;2022-07-29T14:09:28;6.80;;;4.18;;
12437;SDS011;6283;51.330;12.374;2022-07-29T14:11:54;4.55;;;3.53;;
12437;SDS011;6283;51.330;12.374;2022-07-29T14:14:20;4.20;;;3.67;;
12437;SDS011;6283;51.330;12.374;2022-07-29T14:16:45;6.75;;;4.05;;
12437;SDS011;6283;51.330;12.374;2022-07-29T14:19:11;5.05;;;4.47;;
12437;SDS011;6283;51.330;12.374;2022-07-29T14:21:38;6.43;;;4.00;;
12437;SDS011;6283;51.330;12.374;2022-07-29T14:24:04;6.03;;;4.20;;
12437;SDS011;6283;51.330;12.374;2022-07-29T14:26:30;5.82;;;4.00;;
12437;SDS011;6283;51.330;12.374;2022-07-29T14:28:55;6.82;;;4.20;;
12437;SDS011;6283;51.330;12.374;2022-07-29T14:31:21;4.43;;;4.03;;
12437;SDS011;6283;51.330;12.374;2022-07-29T14:33:47;8.68;;;4.47;;
12437;SDS011;6283;51.330;12.374;2022-07-29T14:36:13;14.15;;;5.47;;
12437;SDS011;6283;51.330;12.374;2022-07-29T14:38:38;5.60;;;4.50;;
12437;SDS011;6283;51.330;12.374;2022-07-29T14:41:05;7.00;;;4.05;;
12437;SDS011;6283;51.330;12.374;2022-07-29T14:43:32;4.95;;;4.30;;
12437;SDS011;6283;51.330;12.374;2022-07-29T14:45:59;4.68;;;3.80;;
12437;SDS011;6283;51.330;12.374;2022-07-29T14:48:24;5.22;;;3.92;;
12437;SDS011;6283;51.330;12.374;2022-07-29T14:50:50;5.03;;;4.00;;
12437;SDS011;6283;51.330;12.374;2022-07-29T14:53:16;7.28;;;4.32;;
12437;SDS011;6283;51.330;12.374;2022-07-29T14:55:42;5.68;;;4.10;;
12437;SDS011;6283;51.330;12.374;2022-07-29T14:58:08;12.10;;;4.78;;
12437;SDS011;6283;51.330;12.374;2022-07-29T15:00:34;6.28;;;4.18;;
12437;SDS011;6283;51.330;12.374;2022-07-29T15:03:01;6.15;;;3.85;;
12437;SDS011;6283;51.330;12.374;2022-07-29T15:05:28;4.88;;;3.47;;
12437;SDS011;6283;51.330;12.374;2022-07-29T15:07:54;7.70;;;4.40;;
12437;SDS011;6283;51.330;12.374;2022-07-29T15:10:20;4.63;;;3.85;;
12437;SDS011;6283;51.330;12.374;2022-07-29T15:12:45;4.55;;;4.15;;
12437;SDS011;6283;51.330;12.374;2022-07-29T15:15:11;5.82;;;4.40;;
12437;SDS011;6283;51.330;12.374;2022-07-29T15:17:37;7.03;;;3.92;;
12437;SDS011;6283;51.330;12.374;2022-07-29T15:20:02;6.47;;;4.40;;
12437;SDS011;6283;51.330;12.374;2022-07-29T15:22:29;5.57;;;3.78;;
12437;SDS011;6283;51.330;12.374;2022-07-29T15:24:54;4.13;;;3.63;;
12437;SDS011;6283;51.330;12.374;2022-07-29T15:27:20;5.38;;;4.00;;
12437;SDS011;6283;51.330;12.374;2022-07-29T15:29:45;6.53;;;4.20;;
12437;SDS011;6283;51.330;12.374;2022-07-29T15:32:11;4.55;;;3.90;;
12437;SDS011;6283;51.330;12.374;2022-07-29T15:34:37;6.38;;;4.07;;
12437;SDS011;6283;51.330;12.374;2022-07-29T15:37:04;4.30;;;4.00;;
12437;SDS011;6283;51.330;12.374;2022-07-29T15:39:30;4.38;;;3.90;;
12437;SDS011;6283;51.330;12.374;2022-07-29T15:41:56;4.75;;;4.35;;
12437;SDS011;6283;51.330;12.374;2022-07-29T15:44:24;5.10;;;4.40;;
12437;SDS011;6283;51.330;12.374;2022-07-29T15:46:50;4.25;;;3.80;;
12437;SDS011;6283;51.330;12.374;2022-07-29T15:49:35;4.82;;;3.88;;
12437;SDS011;6283;51.330;12.374;2022-07-29T15:52:03;5.43;;;3.53;;
12437;SDS011;6283;51.330;12.374;2022-07-29T15:54:31;5.35;;;3.35;;
12437;SDS011;6283;51.330;12.374;2022-07-29T15:56:58;8.05;;;3.55;;
12437;SDS011;6283;51.330;12.374;2022-07-29T15:59:23;4.25;;;3.38;;
12437;SDS011;6283;51.330;12.374;2022-07-29T16:01:49;5.63;;;3.30;;
12437;SDS011;6283;51.330;12.374;2022-07-29T16:04:15;5.95;;;3.65;;
12437;SDS011;6283;51.330;12.374;2022-07-29T16:06:41;4.38;;;3.42;;
12437;SDS011;6283;51.330;12.374;2022-07-29T16:09:08;5.85;;;3.35;;
12437;SDS011;6283;51.330;12.374;2022-07-29T16:11:33;6.28;;;3.47;;
12437;SDS011;6283;51.330;12.374;2022-07-29T16:13:59;7.35;;;3.88;;
12437;SDS011;6283;51.330;12.374;2022-07-29T16:16:25;4.97;;;3.63;;
12437;SDS011;6283;51.330;12.374;2022-07-29T16:18:50;5.22;;;3.65;;
12437;SDS011;6283;51.330;12.374;2022-07-29T16:21:16;3.90;;;3.50;;
12437;SDS011;6283;51.330;12.374;2022-07-29T16:23:42;4.72;;;3.83;;
12437;SDS011;6283;51.330;12.374;2022-07-29T16:26:08;4.30;;;3.78;;
12437;SDS011;6283;51.330;12.374;2022-07-29T16:28:33;11.40;;;4.25;;
12437;SDS011;6283;51.330;12.374;2022-07-29T16:30:59;4.55;;;3.63;;
12437;SDS011;6283;51.330;12.374;2022-07-29T16:33:25;5.50;;;4.22;;
12437;SDS011;6283;51.330;12.374;2022-07-29T16:35:51;5.60;;;3.70;;
12437;SDS011;6283;51.330;12.374;2022-07-29T16:38:17;4.93;;;3.63;;
12437;SDS011;6283;51.330;12.374;2022-07-29T16:40:42;7.55;;;3.88;;
12437;SDS011;6283;51.330;12.374;2022-07-29T16:43:08;3.92;;;3.63;;
12437;SDS011;6283;51.330;12.374;2022-07-29T16:45:34;4.60;;;3.33;;
12437;SDS011;6283;51.330;12.374;2022-07-29T16:48:00;4.47;;;3.72;;
12437;SDS011;6283;51.330;12.374;2022-07-29T16:50:26;3.80;;;3.38;;
12437;SDS011;6283;51.330;12.374;2022-07-29T16:52:55;5.63;;;3.65;;
12437;SDS011;6283;51.330;12.374;2022-07-29T16:55:21;7.90;;;3.58;;
12437;SDS011;6283;51.330;12.374;2022-07-29T16:57:48;3.88;;;3.58;;
12437;SDS011;6283;51.330;12.374;2022-07-29T17:00:15;5.13;;;3.65;;
12437;SDS011;6283;51.330;12.374;2022-07-29T17:02:41;3.75;;;3.45;;
12437;SDS011;6283;51.330;12.374;2022-07-29T17:05:07;4.45;;;3.80;;
12437;SDS011;6283;51.330;12.374;2022-07-29T17:07:34;3.65;;;3.33;;
12437;SDS011;6283;51.330;12.374;2022-07-29T17:10:00;4.20;;;3.38;;
12437;SDS011;6283;51.330;12.374;2022-07-29T17:12:28;5.68;;;3.67;;
12437;SDS011;6283;51.330;12.374;2022-07-29T17:14:55;3.78;;;3.00;;
12437;SDS011;6283;51.330;12.374;2022-07-29T17:17:21;3.63;;;2.97;;
12437;SDS011;6283;51.330;12.374;2022-07-29T17:19:46;3.63;;;3.33;;
12437;SDS011;6283;51.330;12.374;2022-07-29T17:22:12;3.47;;;3.05;;
12437;SDS011;6283;51.330;12.374;2022-07-29T17:24:37;3.13;;;2.92;;
12437;SDS011;6283;51.330;12.374;2022-07-29T17:27:03;3.80;;;3.22;;
12437;SDS011;6283;51.330;12.374;2022-07-29T17:29:30;2.95;;;2.75;;
12437;SDS011;6283;51.330;12.374;2022-07-29T17:31:55;3.47;;;3.17;;
12437;SDS011;6283;51.330;12.374;2022-07-29T17:34:23;3.67;;;3.38;;
12437;SDS011;6283;51.330;12.374;2022-07-29T17:36:49;4.70;;;3.17;;
12437;SDS011;6283;51.330;12.374;2022-07-29T17:39:14;3.45;;;3.15;;
12437;SDS011;6283;51.330;12.374;2022-07-29T17:41:40;4.50;;;3.00;;
12437;SDS011;6283;51.330;12.374;2022-07-29T17:44:08;4.70;;;3.67;;
12437;SDS011;6283;51.330;12.374;2022-07-29T17:46:34;3.70;;;3.35;;
12437;SDS011;6283;51.330;12.374;2022-07-29T17:49:00;3.80;;;3.50;;
12437;SDS011;6283;51.330;12.374;2022-07-29T17:51:25;4.05;;;3.40;;
12437;SDS011;6283;51.330;12.374;2022-07-29T17:53:51;4.72;;;3.15;;
12437;SDS011;6283;51.330;12.374;2022-07-29T17:56:18;5.75;;;3.53;;
12437;SDS011;6283;51.330;12.374;2022-07-29T17:58:44;3.20;;;2.90;;
12437;SDS011;6283;51.330;12.374;2022-07-29T18:01:11;3.47;;;2.72;;
12437;SDS011;6283;51.330;12.374;2022-07-29T18:03:38;3.47;;;3.17;;
12437;SDS011;6283;51.330;12.374;2022-07-29T18:06:04;4.25;;;3.63;;
12437;SDS011;6283;51.330;12.374;2022-07-29T18:08:30;5.32;;;3.70;;
12437;SDS011;6283;51.330;12.374;2022-07-29T18:10:56;5.82;;;3.33;;
12437;SDS011;6283;51.330;12.374;2022-07-29T18:13:22;3.70;;;3.25;;
12437;SDS011;6283;51.330;12.374;2022-07-29T18:15:48;4.57;;;3.45;;
12437;SDS011;6283;51.330;12.374;2022-07-29T18:18:14;4.40;;;3.50;;
12437;SDS011;6283;51.330;12.374;2022-07-29T18:20:41;7.00;;;3.88;;
12437;SDS011;6283;51.330;12.374;2022-07-29T18:23:07;3.90;;;3.60;;
12437;SDS011;6283;51.330;12.374;2022-07-29T18:25:33;3.42;;;3.20;;
12437;SDS011;6283;51.330;12.374;2022-07-29T18:27:58;3.67;;;3.22;;
12437;SDS011;6283;51.330;12.374;2022-07-29T18:30:24;5.50;;;3.25;;
12437;SDS011;6283;51.330;12.374;2022-07-29T18:32:50;3.45;;;2.95;;
12437;SDS011;6283;51.330;12.374;2022-07-29T18:35:16;3.30;;;3.00;;
12437;SDS011;6283;51.330;12.374;2022-07-29T18:37:42;3.35;;;3.10;;
12437;SDS011;6283;51.330;12.374;2022-07-29T18:40:08;2.70;;;2.58;;
12437;SDS011;6283;51.330;12.374;2022-07-29T18:42:34;3.35;;;3.03;;
12437;SDS011;6283;51.330;12.374;2022-07-29T18:45:05;3.50;;;3.22;;
12437;SDS011;6283;51.330;12.374;2022-07-29T18:47:31;3.22;;;2.92;;
12437;SDS011;6283;51.330;12.374;2022-07-29T18:49:58;3.67;;;3.38;;
12437;SDS011;6283;51.330;12.374;2022-07-29T18:52:24;4.50;;;3.42;;
12437;SDS011;6283;51.330;12.374;2022-07-29T18:54:49;5.72;;;3.47;;
12437;SDS011;6283;51.330;12.374;2022-07-29T18:57:15;4.15;;;3.03;;
12437;SDS011;6283;51.330;12.374;2022-07-29T18:59:41;4.18;;;3.00;;
12437;SDS011;6283;51.330;12.374;2022-07-29T19:02:07;4.95;;;3.65;;
12437;SDS011;6283;51.330;12.374;2022-07-29T19:04:33;4.00;;;3.13;;
12437;SDS011;6283;51.330;12.374;2022-07-29T19:06:59;5.97;;;3.67;;
12437;SDS011;6283;51.330;12.374;2022-07-29T19:09:27;4.03;;;3.53;;
12437;SDS011;6283;51.330;12.374;2022-07-29T19:11:53;3.22;;;3.00;;
12437;SDS011;6283;51.330;12.374;2022-07-29T19:14:19;4.43;;;3.78;;
12437;SDS011;6283;51.330;12.374;2022-07-29T19:16:45;4.47;;;3.40;;
12437;SDS011;6283;51.330;12.374;2022-07-29T19:19:11;7.00;;;3.83;;
12437;SDS011;6283;51.330;12.374;2022-07-29T19:21:38;4.65;;;3.40;;
12437;SDS011;6283;51.330;12.374;2022-07-29T19:24:04;4.68;;;3.58;;
12437;SDS011;6283;51.330;12.374;2022-07-29T19:26:31;5.72;;;3.70;;
12437;SDS011;6283;51.330;12.374;2022-07-29T19:28:57;5.00;;;3.40;;
12437;SDS011;6283;51.330;12.374;2022-07-29T19:31:23;4.07;;;3.03;;
12437;SDS011;6283;51.330;12.374;2022-07-29T19:33:48;5.68;;;4.10;;
12437;SDS011;6283;51.330;12.374;2022-07-29T19:36:14;6.22;;;4.00;;
12437;SDS011;6283;51.330;12.374;2022-07-29T19:38:39;4.63;;;3.40;;
12437;SDS011;6283;51.330;12.374;2022-07-29T19:41:05;3.83;;;3.53;;
12437;SDS011;6283;51.330;12.374;2022-07-29T19:43:31;4.00;;;3.70;;
12437;SDS011;6283;51.330;12.374;2022-07-29T19:45:58;4.50;;;3.28;;
12437;SDS011;6283;51.330;12.374;2022-07-29T19:48:24;4.72;;;3.90;;
12437;SDS011;6283;51.330;12.374;2022-07-29T19:50:50;4.03;;;3.72;;
12437;SDS011;6283;51.330;12.374;2022-07-29T19:53:15;4.13;;;3.83;;
12437;SDS011;6283;51.330;12.374;2022-07-29T19:55:41;3.60;;;3.30;;
12437;SDS011;6283;51.330;12.374;2022-07-29T19:58:06;4.28;;;3.97;;
12437;SDS011;6283;51.330;12.374;2022-07-29T20:00:32;3.90;;;3.60;;
12437;SDS011;6283;51.330;12.374;2022-07-29T20:02:58;4.03;;;3.70;;
12437;SDS011;6283;51.330;12.374;2022-07-29T20:05:24;4.15;;;3.85;;
12437;SDS011;6283;51.330;12.374;2022-07-29T20:07:52;5.10;;;3.80;;
12437;SDS011;6283;51.330;12.374;2022-07-29T20:10:18;4.05;;;3.65;;
12437;SDS011;6283;51.330;12.374;2022-07-29T20:12:43;3.88;;;3.47;;
12437;SDS011;6283;51.330;12.374;2022-07-29T20:15:09;5.57;;;3.90;;
12437;SDS011;6283;51.330;12.374;2022-07-29T20:17:37;4.30;;;3.70;;
12437;SDS011;6283;51.330;12.374;2022-07-29T20:20:03;4.28;;;3.88;;
12437;SDS011;6283;51.330;12.374;2022-07-29T20:22:29;4.93;;;4.53;;
12437;SDS011;6283;51.330;12.374;2022-07-29T20:24:55;3.95;;;3.55;;
12437;SDS011;6283;51.330;12.374;2022-07-29T20:27:21;4.60;;;3.67;;
12437;SDS011;6283;51.330;12.374;2022-07-29T20:29:46;4.93;;;4.47;;
12437;SDS011;6283;51.330;12.374;2022-07-29T20:32:12;5.72;;;4.40;;
12437;SDS011;6283;51.330;12.374;2022-07-29T20:34:37;3.83;;;3.38;;
12437;SDS011;6283;51.330;12.374;2022-07-29T20:37:06;4.30;;;3.90;;
12437;SDS011;6283;51.330;12.374;2022-07-29T20:39:38;6.25;;;3.97;;
12437;SDS011;6283;51.330;12.374;2022-07-29T20:42:04;4.70;;;4.10;;
12437;SDS011;6283;51.330;12.374;2022-07-29T20:44:30;4.28;;;3.88;;
12437;SDS011;6283;51.330;12.374;2022-07-29T20:46:56;4.60;;;4.20;;
12437;SDS011;6283;51.330;12.374;2022-07-29T20:49:22;5.03;;;4.28;;
12437;SDS011;6283;51.330;12.374;2022-07-29T20:51:47;5.65;;;4.13;;
12437;SDS011;6283;51.330;12.374;2022-07-29T20:54:13;4.50;;;4.10;;
12437;SDS011;6283;51.330;12.374;2022-07-29T20:56:39;4.95;;;4.25;;
12437;SDS011;6283;51.330;12.374;2022-07-29T20:59:05;4.60;;;4.20;;
12437;SDS011;6283;51.330;12.374;2022-07-29T21:01:31;4.50;;;4.10;;
12437;SDS011;6283;51.330;12.374;2022-07-29T21:03:57;7.75;;;4.10;;
12437;SDS011;6283;51.330;12.374;2022-07-29T21:06:22;4.53;;;4.22;;
12437;SDS011;6283;51.330;12.374;2022-07-29T21:08:48;5.93;;;3.78;;
12437;SDS011;6283;51.330;12.374;2022-07-29T21:11:14;5.28;;;3.95;;
12437;SDS011;6283;51.330;12.374;2022-07-29T21:13:39;5.00;;;3.75;;
12437;SDS011;6283;51.330;12.374;2022-07-29T21:16:06;5.13;;;4.40;;
12437;SDS011;6283;51.330;12.374;2022-07-29T21:18:41;4.65;;;4.25;;
12437;SDS011;6283;51.330;12.374;2022-07-29T21:21:10;4.45;;;3.78;;
12437;SDS011;6283;51.330;12.374;2022-07-29T21:23:39;3.95;;;3.65;;
12437;SDS011;6283;51.330;12.374;2022-07-29T21:26:06;3.97;;;3.67;;
12437;SDS011;6283;51.330;12.374;2022-07-29T21:28:32;4.50;;;4.20;;
12437;SDS011;6283;51.330;12.374;2022-07-29T21:31:04;4.40;;;4.00;;
12437;SDS011;6283;51.330;12.374;2022-07-29T21:33:41;4.22;;;3.72;;
12437;SDS011;6283;51.330;12.374;2022-07-29T21:36:09;4.07;;;3.78;;
12437;SDS011;6283;51.330;12.374;2022-07-29T21:38:35;6.18;;;3.80;;
12437;SDS011;6283;51.330;12.374;2022-07-29T21:41:01;3.80;;;3.50;;
12437;SDS011;6283;51.330;12.374;2022-07-29T21:43:28;4.05;;;3.75;;
12437;SDS011;6283;51.330;12.374;2022-07-29T21:45:54;4.55;;;4.13;;
12437;SDS011;6283;51.330;12.374;2022-07-29T21:48:21;3.75;;;3.42;;
12437;SDS011;6283;51.330;12.374;2022-07-29T21:50:48;4.60;;;3.95;;
12437;SDS011;6283;51.330;12.374;2022-07-29T21:53:14;8.55;;;5.30;;
12437;SDS011;6283;51.330;12.374;2022-07-29T21:55:40;5.57;;;5.05;;
12437;SDS011;6283;51.330;12.374;2022-07-29T21:58:06;5.50;;;5.00;;
12437;SDS011;6283;51.330;12.374;2022-07-29T22:00:32;5.10;;;4.70;;
12437;SDS011;6283;51.330;12.374;2022-07-29T22:02:58;5.97;;;5.10;;
12437;SDS011;6283;51.330;12.374;2022-07-29T22:05:25;5.90;;;4.80;;
12437;SDS011;6283;51.330;12.374;2022-07-29T22:07:51;6.95;;;4.28;;
12437;SDS011;6283;51.330;12.374;2022-07-29T22:10:17;7.90;;;4.97;;
12437;SDS011;6283;51.330;12.374;2022-07-29T22:12:43;9.32;;;5.50;;
12437;SDS011;6283;51.330;12.374;2022-07-29T22:15:08;6.53;;;5.60;;
12437;SDS011;6283;51.330;12.374;2022-07-29T22:17:35;7.05;;;6.38;;
12437;SDS011;6283;51.330;12.374;2022-07-29T22:20:00;6.90;;;6.20;;
12437;SDS011;6283;51.330;12.374;2022-07-29T22:22:26;7.60;;;6.90;;
12437;SDS011;6283;51.330;12.374;2022-07-29T22:24:52;7.13;;;6.45;;
12437;SDS011;6283;51.330;12.374;2022-07-29T22:27:19;7.57;;;6.78;;
12437;SDS011;6283;51.330;12.374;2022-07-29T22:29:45;7.22;;;6.35;;
12437;SDS011;6283;51.330;12.374;2022-07-29T22:32:11;7.03;;;6.30;;
12437;SDS011;6283;51.330;12.374;2022-07-29T22:34:36;7.95;;;6.45;;
12437;SDS011;6283;51.330;12.374;2022-07-29T22:37:02;7.90;;;6.38;;
12437;SDS011;6283;51.330;12.374;2022-07-29T22:39:28;8.13;;;6.45;;